sensor_id;sensor_type;location;lat;lon;timestamp;pressure;altitude;pressure_sealevel;temperature;humidity
51460;BME280;37534;39.772;2.718;2023-03-01T00:00:41;101400.16;;;8.18;100.00
51460;BME280;37534;39.772;2.718;2023-03-01T00:03:11;101393.34;;;8.11;100.00
51460;BME280;37534;39.772;2.718;2023-03-01T00:05:43;101392.50;;;8.03;100.00
51460;BME280;37534;39.772;2.718;2023-03-01T00:08:09;101395.94;;;8.00;100.00
51460;BME280;37534;39.772;2.718;2023-03-01T00:10:35;101397.63;;;8.10;100.00
51460;BME280;37534;39.772;2.718;2023-03-01T00:13:01;101399.38;;;7.99;100.00
51460;BME280;37534;39.772;2.718;2023-03-01T00:15:29;101387.44;;;7.83;100.00
51460;BME280;37534;39.772;2.718;2023-03-01T00:17:54;101399.47;;;7.79;100.00
51460;BME280;37534;39.772;2.718;2023-03-01T00:20:20;101397.75;;;7.76;100.00
51460;BME280;37534;39.772;2.718;2023-03-01T00:22:45;101402.00;;;7.85;100.00
51460;BME280;37534;39.772;2.718;2023-03-01T00:25:11;101399.41;;;7.90;100.00
51460;BME280;37534;39.772;2.718;2023-03-01T00:27:36;101405.41;;;7.90;100.00
51460;BME280;37534;39.772;2.718;2023-03-01T00:30:02;101419.97;;;7.87;100.00
51460;BME280;37534;39.772;2.718;2023-03-01T00:32:28;101423.44;;;7.76;100.00
51460;BME280;37534;39.772;2.718;2023-03-01T00:34:54;101416.63;;;7.69;100.00
51460;BME280;37534;39.772;2.718;2023-03-01T00:37:21;101420.88;;;7.76;100.00
51460;BME280;37534;39.772;2.718;2023-03-01T00:39:47;101416.59;;;7.78;100.00
51460;BME280;37534;39.772;2.718;2023-03-01T00:42:12;101411.41;;;7.91;100.00
51460;BME280;37534;39.772;2.718;2023-03-01T00:44:38;101403.66;;;7.94;100.00
51460;BME280;37534;39.772;2.718;2023-03-01T00:47:04;101397.72;;;7.79;100.00
51460;BME280;37534;39.772;2.718;2023-03-01T00:49:29;101406.31;;;7.80;100.00
51460;BME280;37534;39.772;2.718;2023-03-01T00:51:55;101407.16;;;7.82;100.00
51460;BME280;37534;39.772;2.718;2023-03-01T00:54:21;101399.41;;;7.90;100.00
51460;BME280;37534;39.772;2.718;2023-03-01T00:56:46;101391.75;;;7.84;100.00
51460;BME280;37534;39.772;2.718;2023-03-01T00:59:12;101387.41;;;7.93;100.00
51460;BME280;37534;39.772;2.718;2023-03-01T01:01:37;101391.66;;;8.00;100.00
51460;BME280;37534;39.772;2.718;2023-03-01T01:04:06;101392.53;;;7.92;100.00
51460;BME280;37534;39.772;2.718;2023-03-01T01:06:35;101392.50;;;8.07;100.00
51460;BME280;37534;39.772;2.718;2023-03-01T01:09:02;101388.19;;;8.14;100.00
51460;BME280;37534;39.772;2.718;2023-03-01T01:11:29;101396.81;;;7.97;100.00
51460;BME280;37534;39.772;2.718;2023-03-01T01:13:55;101393.38;;;8.02;100.00
51460;BME280;37534;39.772;2.718;2023-03-01T01:16:23;101390.00;;;7.89;100.00
51460;BME280;37534;39.772;2.718;2023-03-01T01:18:50;101387.44;;;7.89;100.00
51460;BME280;37534;39.772;2.718;2023-03-01T01:21:18;101391.75;;;7.82;100.00
51460;BME280;37534;39.772;2.718;2023-03-01T01:23:45;101386.56;;;7.87;100.00
51460;BME280;37534;39.772;2.718;2023-03-01T01:26:17;101374.59;;;7.83;100.00
51460;BME280;37534;39.772;2.718;2023-03-01T01:28:43;101380.59;;;7.88;100.00
51460;BME280;37534;39.772;2.718;2023-03-01T01:31:09;101371.16;;;7.88;100.00
51460;BME280;37534;39.772;2.718;2023-03-01T01:33:35;101368.66;;;7.71;100.00
51460;BME280;37534;39.772;2.718;2023-03-01T01:36:00;101377.25;;;7.61;100.00
51460;BME280;37534;39.772;2.718;2023-03-01T01:38:26;101377.25;;;7.58;100.00
51460;BME280;37534;39.772;2.718;2023-03-01T01:40:52;101386.69;;;7.57;100.00
51460;BME280;37534;39.772;2.718;2023-03-01T01:43:24;101383.28;;;7.51;100.00
51460;BME280;37534;39.772;2.718;2023-03-01T01:45:52;101379.84;;;7.42;100.00
51460;BME280;37534;39.772;2.718;2023-03-01T01:48:20;101380.69;;;7.51;100.00
51460;BME280;37534;39.772;2.718;2023-03-01T01:50:55;101376.44;;;7.48;100.00
51460;BME280;37534;39.772;2.718;2023-03-01T01:53:23;101376.44;;;7.45;100.00
51460;BME280;37534;39.772;2.718;2023-03-01T01:55:54;101369.63;;;7.41;100.00
51460;BME280;37534;39.772;2.718;2023-03-01T01:58:22;101373.94;;;7.25;100.00
51460;BME280;37534;39.772;2.718;2023-03-01T02:00:49;101362.75;;;7.40;100.00
51460;BME280;37534;39.772;2.718;2023-03-01T02:03:20;101374.78;;;7.27;100.00
51460;BME280;37534;39.772;2.718;2023-03-01T02:08:18;101365.38;;;7.17;100.00
51460;BME280;37534;39.772;2.718;2023-03-01T02:10:45;101367.09;;;7.04;100.00
51460;BME280;37534;39.772;2.718;2023-03-01T02:13:12;101364.53;;;7.13;100.00
51460;BME280;37534;39.772;2.718;2023-03-01T02:15:39;101361.09;;;7.22;100.00
51460;BME280;37534;39.772;2.718;2023-03-01T02:18:06;101353.41;;;7.10;100.00
51460;BME280;37534;39.772;2.718;2023-03-01T02:20:51;101359.41;;;7.07;100.00
51460;BME280;37534;39.772;2.718;2023-03-01T02:23:22;101350.84;;;7.00;100.00
51460;BME280;37534;39.772;2.718;2023-03-01T02:28:25;101339.72;;;7.04;100.00
51460;BME280;37534;39.772;2.718;2023-03-01T02:30:53;101345.72;;;7.00;100.00
51460;BME280;37534;39.772;2.718;2023-03-01T02:33:39;101347.44;;;6.94;100.00
51460;BME280;37534;39.772;2.718;2023-03-01T02:36:09;101338.88;;;6.85;100.00
51460;BME280;37534;39.772;2.718;2023-03-01T02:38:36;101333.75;;;6.87;100.00
51460;BME280;37534;39.772;2.718;2023-03-01T02:41:03;101328.63;;;6.89;100.00
51460;BME280;37534;39.772;2.718;2023-03-01T02:43:32;101335.47;;;6.91;100.00
51460;BME280;37534;39.772;2.718;2023-03-01T02:46:03;101325.19;;;7.08;100.00
51460;BME280;37534;39.772;2.718;2023-03-01T02:48:40;101326.06;;;7.06;100.00
51460;BME280;37534;39.772;2.718;2023-03-01T12:30:35;101349.28;;;30.24;22.98
51460;BME280;37534;39.772;2.718;2023-03-01T12:41:17;101335.97;;;30.68;22.45
51460;BME280;37534;39.772;2.718;2023-03-01T12:44:15;101334.00;;;30.26;22.91
51460;BME280;37534;39.772;2.718;2023-03-01T12:49:41;101336.34;;;29.93;22.70
51460;BME280;37534;39.772;2.718;2023-03-01T12:52:51;101330.31;;;29.73;22.78
51460;BME280;37534;39.772;2.718;2023-03-01T13:00:35;101325.22;;;28.96;23.32
51460;BME280;37534;39.772;2.718;2023-03-01T13:08:49;101319.63;;;27.94;24.83
51460;BME280;37534;39.772;2.718;2023-03-01T13:11:22;101311.06;;;29.06;24.14
51460;BME280;37534;39.772;2.718;2023-03-01T13:13:48;101305.94;;;28.57;23.59
51460;BME280;37534;39.772;2.718;2023-03-01T13:19:10;101311.94;;;26.79;25.29
51460;BME280;37534;39.772;2.718;2023-03-01T13:21:36;101307.13;;;25.54;26.43
51460;BME280;37534;39.772;2.718;2023-03-01T13:24:02;101296.50;;;26.42;26.26
51460;BME280;37534;39.772;2.718;2023-03-01T13:26:28;101292.06;;;27.56;24.81
51460;BME280;37534;39.772;2.718;2023-03-01T13:28:55;101299.31;;;26.08;26.01
51460;BME280;37534;39.772;2.718;2023-03-01T13:33:57;101284.91;;;27.37;25.72
51460;BME280;37534;39.772;2.718;2023-03-01T13:39:31;101284.69;;;27.79;24.26
51460;BME280;37534;39.772;2.718;2023-03-01T13:42:24;101287.84;;;26.61;25.29
51460;BME280;37534;39.772;2.718;2023-03-01T13:44:49;101286.59;;;27.47;24.91
51460;BME280;37534;39.772;2.718;2023-03-01T13:47:17;101286.81;;;28.14;24.99
51460;BME280;37534;39.772;2.718;2023-03-01T13:49:47;101282.19;;;28.36;25.09
51460;BME280;37534;39.772;2.718;2023-03-01T13:54:53;101276.94;;;29.11;24.27
51460;BME280;37534;39.772;2.718;2023-03-01T13:57:26;101281.22;;;29.49;24.07
51460;BME280;37534;39.772;2.718;2023-03-01T13:59:54;101279.72;;;29.83;23.56
51460;BME280;37534;39.772;2.718;2023-03-01T14:02:19;101288.38;;;30.21;22.75
51460;BME280;37534;39.772;2.718;2023-03-01T14:04:56;101281.84;;;29.97;22.88
51460;BME280;37534;39.772;2.718;2023-03-01T14:07:23;101279.97;;;28.88;23.89
51460;BME280;37534;39.772;2.718;2023-03-01T14:10:03;101262.88;;;28.63;23.56
51460;BME280;37534;39.772;2.718;2023-03-01T14:15:35;101272.63;;;26.95;24.83
51460;BME280;37534;39.772;2.718;2023-03-01T14:18:07;101260.38;;;27.64;24.91
51460;BME280;37534;39.772;2.718;2023-03-01T14:20:41;101266.09;;;27.49;25.15
51460;BME280;37534;39.772;2.718;2023-03-01T14:23:20;101256.66;;;28.05;24.68
51460;BME280;37534;39.772;2.718;2023-03-01T14:25:52;101252.75;;;27.20;25.35
51460;BME280;37534;39.772;2.718;2023-03-01T14:28:21;101252.66;;;26.91;25.22
51460;BME280;37534;39.772;2.718;2023-03-01T14:30:53;101259.22;;;27.37;25.52
51460;BME280;37534;39.772;2.718;2023-03-01T14:33:37;101257.44;;;27.47;25.03
51460;BME280;37534;39.772;2.718;2023-03-01T14:36:13;101256.84;;;27.34;25.26
51460;BME280;37534;39.772;2.718;2023-03-01T14:38:41;101254.50;;;27.31;25.82
51460;BME280;37534;39.772;2.718;2023-03-01T14:41:14;101254.97;;;26.74;25.58
51460;BME280;37534;39.772;2.718;2023-03-01T14:44:04;101257.00;;;26.92;25.81
51460;BME280;37534;39.772;2.718;2023-03-01T14:46:33;101251.81;;;26.17;26.45
51460;BME280;37534;39.772;2.718;2023-03-01T14:49:14;101244.78;;;26.07;26.97
51460;BME280;37534;39.772;2.718;2023-03-01T14:51:43;101253.78;;;26.46;26.26
51460;BME280;37534;39.772;2.718;2023-03-01T14:57:18;101234.50;;;25.81;26.13
51460;BME280;37534;39.772;2.718;2023-03-01T14:59:45;101232.69;;;25.49;27.10
51460;BME280;37534;39.772;2.718;2023-03-01T15:02:22;101235.50;;;25.69;26.56
51460;BME280;37534;39.772;2.718;2023-03-01T15:04:52;101235.22;;;25.51;26.94
51460;BME280;37534;39.772;2.718;2023-03-01T15:07:18;101225.81;;;25.58;26.82
51460;BME280;37534;39.772;2.718;2023-03-01T15:09:45;101223.63;;;25.31;26.97
51460;BME280;37534;39.772;2.718;2023-03-01T15:12:40;101216.56;;;24.75;27.67
51460;BME280;37534;39.772;2.718;2023-03-01T15:15:42;101224.56;;;24.39;28.41
51460;BME280;37534;39.772;2.718;2023-03-01T15:20:42;101210.00;;;23.87;28.73
51460;BME280;37534;39.772;2.718;2023-03-01T15:23:19;101214.97;;;23.79;28.89
51460;BME280;37534;39.772;2.718;2023-03-01T15:25:46;101208.66;;;23.57;29.16
51460;BME280;37534;39.772;2.718;2023-03-01T15:28:19;101202.66;;;23.31;28.92
51460;BME280;37534;39.772;2.718;2023-03-01T15:30:46;101204.38;;;22.93;30.48
51460;BME280;37534;39.772;2.718;2023-03-01T15:33:25;101205.03;;;23.10;29.87
51460;BME280;37534;39.772;2.718;2023-03-01T15:35:55;101206.06;;;22.94;29.52
51460;BME280;37534;39.772;2.718;2023-03-01T15:38:32;101211.56;;;22.27;30.66
51460;BME280;37534;39.772;2.718;2023-03-01T15:41:02;101212.34;;;22.02;31.32
51460;BME280;37534;39.772;2.718;2023-03-01T15:46:22;101213.94;;;21.77;31.53
51460;BME280;37534;39.772;2.718;2023-03-01T15:48:53;101205.03;;;21.38;32.01
51460;BME280;37534;39.772;2.718;2023-03-01T15:53:58;101197.69;;;20.59;33.07
51460;BME280;37534;39.772;2.718;2023-03-01T15:56:25;101185.22;;;20.48;33.49
51460;BME280;37534;39.772;2.718;2023-03-01T15:58:51;101199.47;;;20.58;33.47
51460;BME280;37534;39.772;2.718;2023-03-01T16:01:17;101196.22;;;20.10;34.21
51460;BME280;37534;39.772;2.718;2023-03-01T16:03:43;101198.75;;;19.81;34.24
51460;BME280;37534;39.772;2.718;2023-03-01T16:06:10;101200.91;;;19.73;34.83
51460;BME280;37534;39.772;2.718;2023-03-01T16:08:37;101193.91;;;19.57;34.83
51460;BME280;37534;39.772;2.718;2023-03-01T16:11:09;101192.00;;;19.13;36.23
51460;BME280;37534;39.772;2.718;2023-03-01T16:13:36;101191.41;;;19.08;35.98
51460;BME280;37534;39.772;2.718;2023-03-01T16:16:02;101193.50;;;18.68;36.39
51460;BME280;37534;39.772;2.718;2023-03-01T16:18:28;101192.47;;;18.02;37.59
51460;BME280;37534;39.772;2.718;2023-03-01T16:20:53;101191.47;;;17.68;37.54
51460;BME280;37534;39.772;2.718;2023-03-01T16:23:19;101190.09;;;17.61;38.39
51460;BME280;37534;39.772;2.718;2023-03-01T16:25:46;101192.69;;;17.61;38.29
51460;BME280;37534;39.772;2.718;2023-03-01T16:28:12;101195.06;;;17.29;39.24
51460;BME280;37534;39.772;2.718;2023-03-01T16:30:39;101176.59;;;17.15;39.24
51460;BME280;37534;39.772;2.718;2023-03-01T16:33:05;101184.63;;;16.91;39.14
51460;BME280;37534;39.772;2.718;2023-03-01T16:35:33;101184.00;;;16.25;40.81
51460;BME280;37534;39.772;2.718;2023-03-01T16:37:59;101196.53;;;15.94;40.86
51460;BME280;37534;39.772;2.718;2023-03-01T16:40:27;101184.09;;;14.89;43.87
51460;BME280;37534;39.772;2.718;2023-03-01T16:42:54;101188.63;;;14.07;46.68
51460;BME280;37534;39.772;2.718;2023-03-01T16:45:24;101198.16;;;13.78;47.93
51460;BME280;37534;39.772;2.718;2023-03-01T16:47:51;101194.75;;;13.49;49.34
51460;BME280;37534;39.772;2.718;2023-03-01T16:50:17;101188.44;;;12.99;51.81
51460;BME280;37534;39.772;2.718;2023-03-01T16:52:45;101196.53;;;12.55;55.21
51460;BME280;37534;39.772;2.718;2023-03-01T16:55:11;101209.22;;;12.31;56.66
51460;BME280;37534;39.772;2.718;2023-03-01T16:57:38;101199.53;;;12.04;57.93
51460;BME280;37534;39.772;2.718;2023-03-01T17:00:05;101202.59;;;11.82;62.70
51460;BME280;37534;39.772;2.718;2023-03-01T17:02:34;101209.44;;;11.46;65.57
51460;BME280;37534;39.772;2.718;2023-03-01T17:04:59;101198.13;;;11.11;69.13
51460;BME280;37534;39.772;2.718;2023-03-01T17:07:25;101197.91;;;11.21;72.30
51460;BME280;37534;39.772;2.718;2023-03-01T17:09:50;101202.59;;;11.02;75.37
51460;BME280;37534;39.772;2.718;2023-03-01T17:12:16;101204.56;;;10.90;77.66
51460;BME280;37534;39.772;2.718;2023-03-01T17:14:42;101207.44;;;10.74;80.62
51460;BME280;37534;39.772;2.718;2023-03-01T17:17:09;101208.59;;;10.58;85.16
51460;BME280;37534;39.772;2.718;2023-03-01T17:19:35;101204.25;;;10.60;86.71
51460;BME280;37534;39.772;2.718;2023-03-01T17:22:05;101204.53;;;10.44;85.77
51460;BME280;37534;39.772;2.718;2023-03-01T17:24:35;101218.53;;;10.31;86.66
51460;BME280;37534;39.772;2.718;2023-03-01T17:27:01;101206.66;;;10.18;85.50
51460;BME280;37534;39.772;2.718;2023-03-01T17:29:27;101217.31;;;9.96;87.06
51460;BME280;37534;39.772;2.718;2023-03-01T17:31:53;101201.47;;;9.66;89.46
51460;BME280;37534;39.772;2.718;2023-03-01T17:34:21;101212.84;;;9.50;89.08
51460;BME280;37534;39.772;2.718;2023-03-01T17:36:47;101215.53;;;9.41;90.90
51460;BME280;37534;39.772;2.718;2023-03-01T17:39:15;101213.25;;;9.16;93.83
51460;BME280;37534;39.772;2.718;2023-03-01T17:41:41;101213.41;;;9.02;96.22
51460;BME280;37534;39.772;2.718;2023-03-01T17:44:07;101220.47;;;8.86;98.71
51460;BME280;37534;39.772;2.718;2023-03-01T17:46:32;101236.94;;;8.70;100.00
51460;BME280;37534;39.772;2.718;2023-03-01T17:48:58;101231.91;;;8.57;100.00
51460;BME280;37534;39.772;2.718;2023-03-01T17:51:24;101232.00;;;8.47;100.00
51460;BME280;37534;39.772;2.718;2023-03-01T17:53:50;101244.91;;;8.39;100.00
51460;BME280;37534;39.772;2.718;2023-03-01T17:56:15;101249.16;;;8.40;100.00
51460;BME280;37534;39.772;2.718;2023-03-01T17:58:41;101241.53;;;8.28;100.00
51460;BME280;37534;39.772;2.718;2023-03-01T18:01:26;101244.09;;;8.29;100.00
51460;BME280;37534;39.772;2.718;2023-03-01T18:03:53;101244.19;;;8.17;100.00
51460;BME280;37534;39.772;2.718;2023-03-01T18:06:21;101243.34;;;8.19;100.00
51460;BME280;37534;39.772;2.718;2023-03-01T18:08:47;101239.94;;;8.14;100.00
51460;BME280;37534;39.772;2.718;2023-03-01T18:11:15;101255.44;;;8.05;100.00
51460;BME280;37534;39.772;2.718;2023-03-01T18:13:41;101246.13;;;7.87;100.00
51460;BME280;37534;39.772;2.718;2023-03-01T18:16:11;101252.19;;;7.75;100.00
51460;BME280;37534;39.772;2.718;2023-03-01T18:18:38;101254.81;;;7.65;100.00
51460;BME280;37534;39.772;2.718;2023-03-01T18:21:04;101257.44;;;7.54;100.00
51460;BME280;37534;39.772;2.718;2023-03-01T18:23:32;101258.34;;;7.48;100.00
51460;BME280;37534;39.772;2.718;2023-03-01T18:25:59;101253.22;;;7.43;100.00
51460;BME280;37534;39.772;2.718;2023-03-01T18:28:26;101262.66;;;7.35;100.00
51460;BME280;37534;39.772;2.718;2023-03-01T18:30:58;101257.53;;;7.26;100.00
51460;BME280;37534;39.772;2.718;2023-03-01T18:33:25;101242.22;;;7.11;100.00
51460;BME280;37534;39.772;2.718;2023-03-01T18:35:50;101249.06;;;7.02;100.00
51460;BME280;37534;39.772;2.718;2023-03-01T18:38:16;101255.94;;;6.94;100.00
51460;BME280;37534;39.772;2.718;2023-03-01T18:40:42;101262.81;;;6.83;100.00
51460;BME280;37534;39.772;2.718;2023-03-01T18:43:09;101260.22;;;6.81;100.00
51460;BME280;37534;39.772;2.718;2023-03-01T18:45:35;101266.22;;;6.83;100.00
51460;BME280;37534;39.772;2.718;2023-03-01T18:48:02;101268.78;;;6.74;100.00
51460;BME280;37534;39.772;2.718;2023-03-01T18:50:28;101267.97;;;6.64;100.00
51460;BME280;37534;39.772;2.718;2023-03-01T18:52:53;101270.53;;;6.60;100.00
51460;BME280;37534;39.772;2.718;2023-03-01T18:55:19;101267.09;;;6.52;100.00
51460;BME280;37534;39.772;2.718;2023-03-01T18:57:45;101263.66;;;6.46;100.00
51460;BME280;37534;39.772;2.718;2023-03-01T19:00:11;101265.38;;;6.43;100.00
51460;BME280;37534;39.772;2.718;2023-03-01T19:02:37;101263.69;;;6.39;100.00
51460;BME280;37534;39.772;2.718;2023-03-01T19:05:03;101275.66;;;6.37;100.00
51460;BME280;37534;39.772;2.718;2023-03-01T19:07:29;101276.50;;;6.36;100.00
51460;BME280;37534;39.772;2.718;2023-03-01T19:09:55;101280.75;;;6.32;100.00
51460;BME280;37534;39.772;2.718;2023-03-01T19:12:20;101283.31;;;6.34;100.00
51460;BME280;37534;39.772;2.718;2023-03-01T19:14:46;101281.63;;;6.30;100.00
51460;BME280;37534;39.772;2.718;2023-03-01T19:17:11;101289.28;;;6.23;100.00
51460;BME280;37534;39.772;2.718;2023-03-01T19:19:38;101284.16;;;6.17;100.00
51460;BME280;37534;39.772;2.718;2023-03-01T19:22:04;101282.47;;;6.33;100.00
51460;BME280;37534;39.772;2.718;2023-03-01T19:24:30;101284.16;;;6.17;100.00
51460;BME280;37534;39.772;2.718;2023-03-01T19:26:57;101291.88;;;6.30;100.00
51460;BME280;37534;39.772;2.718;2023-03-01T19:29:22;101291.88;;;6.26;100.00
51460;BME280;37534;39.772;2.718;2023-03-01T19:31:48;101296.09;;;5.98;100.00
51460;BME280;37534;39.772;2.718;2023-03-01T19:34:14;101266.97;;;5.73;100.00
51460;BME280;37534;39.772;2.718;2023-03-01T19:36:42;101296.84;;;5.80;100.00
51460;BME280;37534;39.772;2.718;2023-03-01T19:39:09;101303.69;;;5.81;100.00
51460;BME280;37534;39.772;2.718;2023-03-01T19:41:37;101293.44;;;5.72;100.00
51460;BME280;37534;39.772;2.718;2023-03-01T19:44:03;101302.81;;;5.73;100.00
51460;BME280;37534;39.772;2.718;2023-03-01T19:46:31;101293.41;;;5.69;100.00
51460;BME280;37534;39.772;2.718;2023-03-01T19:48:57;101305.38;;;5.71;100.00
51460;BME280;37534;39.772;2.718;2023-03-01T19:51:25;101313.03;;;5.64;100.00
51460;BME280;37534;39.772;2.718;2023-03-01T19:53:51;101315.53;;;5.51;100.00
51460;BME280;37534;39.772;2.718;2023-03-01T19:56:17;101319.81;;;5.56;100.00
51460;BME280;37534;39.772;2.718;2023-03-01T19:58:43;101315.47;;;5.45;100.00
51460;BME280;37534;39.772;2.718;2023-03-01T20:01:17;101316.31;;;5.38;100.00
51460;BME280;37534;39.772;2.718;2023-03-01T20:03:43;101320.63;;;5.50;100.00
51460;BME280;37534;39.772;2.718;2023-03-01T20:06:14;101317.25;;;5.51;100.00
51460;BME280;37534;39.772;2.718;2023-03-01T20:08:40;101318.91;;;5.44;100.00
51460;BME280;37534;39.772;2.718;2023-03-01T20:11:08;101317.16;;;5.34;100.00
51460;BME280;37534;39.772;2.718;2023-03-01T20:13:34;101317.06;;;5.16;100.00
51460;BME280;37534;39.772;2.718;2023-03-01T20:16:00;101305.00;;;4.99;100.00
51460;BME280;37534;39.772;2.718;2023-03-01T20:18:26;101308.38;;;4.95;100.00
51460;BME280;37534;39.772;2.718;2023-03-01T20:20:54;101311.81;;;4.99;100.00
51460;BME280;37534;39.772;2.718;2023-03-01T20:23:20;101320.31;;;4.93;100.00
51460;BME280;37534;39.772;2.718;2023-03-01T20:25:46;101323.72;;;4.95;100.00
